Terminal Aerodrome Forecast
Issued by NWS Albany, NY

Home | Current Version | Previous Version | Text Only | Print | Product List | Glossary On
Versions: 1 2 3 4 5 6 7 8 9 10 11 12 13 14
932
FTUS41 KALY 220520
TAFPOU
TAF
KPOU 220520Z 2206/2306 00000KT P6SM FEW250
     FM221100 00000KT P6SM FEW150 PROB30 2223/2224 4SM -SHRA OVC040
     FM230000 VRB03KT P6SM BKN110 PROB30 2300/2306 4SM -SHRA OVC040=

USA.gov is the U.S. government's official web portal to all federal, state and local government web resources and services.